createdAt,value
2017-11-23T00:00:56.070Z,70.5
2017-11-23T00:10:55.019Z,71.8
2017-11-23T00:20:55.083Z,85.9
2017-11-23T00:30:56.099Z,74.9
2017-11-23T00:40:55.055Z,74.5
2017-11-23T00:50:55.337Z,69.9
2017-11-23T01:00:55.287Z,77.5
2017-11-23T01:10:55.207Z,79.0
2017-11-23T01:20:55.241Z,74.4
2017-11-23T01:30:55.580Z,76.4
2017-11-23T01:40:56.325Z,76.6
2017-11-23T01:50:55.473Z,76.9
2017-11-23T02:00:55.320Z,82.0
2017-11-23T02:10:55.211Z,89.1
2017-11-23T02:20:55.632Z,81.1
2017-11-23T02:30:56.262Z,83.1
2017-11-23T02:40:55.325Z,79.4
2017-11-23T02:50:55.229Z,76.5
2017-11-23T03:00:55.686Z,72.5
2017-11-23T03:10:55.838Z,71.2
2017-11-23T03:20:55.068Z,70.7
2017-11-23T03:30:55.128Z,73.4
2017-11-23T03:40:55.557Z,72.3
2017-11-23T03:50:56.389Z,68.7
2017-11-23T04:00:55.237Z,63.6
2017-11-23T04:10:55.145Z,66.3
2017-11-23T04:20:55.142Z,62.4
2017-11-23T04:30:54.983Z,65.8
2017-11-23T04:40:56.125Z,62.2
2017-11-23T04:50:55.706Z,62.5
2017-11-23T05:00:55.704Z,58.8
2017-11-23T05:10:55.913Z,63.0
2017-11-23T05:20:54.897Z,64.7
2017-11-23T05:30:55.474Z,60.5
2017-11-23T05:40:56.012Z,55.2
2017-11-23T05:50:54.911Z,53.7
2017-11-23T06:00:55.822Z,52.6
2017-11-23T06:10:55.721Z,50.9
2017-11-23T06:20:56.498Z,54.1
2017-11-23T06:30:56.192Z,51.6
2017-11-23T06:40:55.309Z,55.9
2017-11-23T06:50:55.393Z,53.7
2017-11-23T07:00:55.382Z,49.7
2017-11-23T07:10:55.443Z,48.5
2017-11-23T07:20:55.398Z,47.6
2017-11-23T07:30:55.994Z,51.5
2017-11-23T07:40:54.895Z,48.6
2017-11-23T07:50:56.305Z,54.0
2017-11-23T08:00:55.826Z,55.5
2017-11-23T08:10:55.764Z,42.3
2017-11-23T08:20:56.179Z,45.2
2017-11-23T08:30:55.275Z,48.9
2017-11-23T08:40:56.153Z,48.8
2017-11-23T08:50:55.624Z,51.3
2017-11-23T09:00:55.781Z,53.4
2017-11-23T09:10:55.683Z,53.5
2017-11-23T09:20:55.765Z,49.4
2017-11-23T09:30:55.771Z,51.9
2017-11-23T09:40:55.890Z,52.3
2017-11-23T09:50:55.998Z,56.6
2017-11-23T10:00:54.908Z,50.8
2017-11-23T10:10:56.532Z,40.7
2017-11-23T10:20:55.721Z,38.8
2017-11-23T10:30:55.599Z,41.1
2017-11-23T10:40:56.053Z,66.6
2017-11-23T10:50:55.174Z,64.0
2017-11-23T11:00:55.438Z,38.4
2017-11-23T11:10:55.525Z,38.5
2017-11-23T11:20:55.695Z,33.1
2017-11-23T11:30:56.082Z,28.7
2017-11-23T11:40:55.457Z,28.8
2017-11-23T11:50:55.406Z,26.6
2017-11-23T12:00:55.363Z,28.7
2017-11-23T12:10:55.635Z,36.6
2017-11-23T12:20:56.153Z,42.8
2017-11-23T12:30:55.711Z,48.1
2017-11-23T12:40:55.668Z,36.2
2017-11-23T12:50:55.625Z,28.6
2017-11-23T13:00:56.218Z,25.8
2017-11-23T13:10:55.390Z,23.7
2017-11-23T13:20:55.638Z,18.7
2017-11-23T13:30:55.643Z,19.0
2017-11-23T13:40:55.615Z,16.7
2017-11-23T13:50:55.571Z,17.9
2017-11-23T14:00:55.449Z,18.7
2017-11-23T14:10:55.436Z,19.1
2017-11-23T14:20:56.456Z,23.4
2017-11-23T14:30:55.941Z,18.8
2017-11-23T14:40:56.029Z,17.6
2017-11-23T14:50:55.077Z,24.6
2017-11-23T15:00:55.030Z,21.5
2017-11-23T15:10:55.004Z,25.9
2017-11-23T15:20:55.170Z,35.9
2017-11-23T15:30:55.327Z,36.5
2017-11-23T15:40:55.732Z,41.9
2017-11-23T15:50:56.076Z,45.2
2017-11-23T16:00:55.465Z,44.3
2017-11-23T16:10:55.699Z,48.0
2017-11-23T16:20:55.851Z,55.9
2017-11-23T16:30:55.991Z,59.4
2017-11-23T16:40:54.828Z,62.5
2017-11-23T16:50:55.721Z,54.9
2017-11-23T17:00:56.462Z,68.2
2017-11-23T17:10:55.890Z,74.6
2017-11-23T17:20:55.205Z,72.1
2017-11-23T17:30:55.764Z,68.1
2017-11-23T17:40:56.019Z,58.8
2017-11-23T17:50:55.721Z,86.3
2017-11-23T18:00:55.646Z,63.7
2017-11-23T18:10:55.787Z,69.4
2017-11-23T18:20:56.028Z,86.2
2017-11-23T18:30:54.903Z,83.6
2017-11-23T18:40:56.619Z,93.9
2017-11-23T18:50:56.183Z,111.5
2017-11-23T19:00:55.670Z,87.3
2017-11-23T19:10:56.226Z,103.2
2017-11-23T19:20:55.733Z,126.7
2017-11-23T19:30:56.036Z,143.3
2017-11-23T19:40:55.001Z,159.4
2017-11-23T19:50:56.257Z,149.2
2017-11-23T20:00:55.143Z,149.0
2017-11-23T20:10:55.805Z,134.5
2017-11-23T20:20:56.256Z,132.2
2017-11-23T20:30:55.333Z,125.9
2017-11-23T20:40:55.412Z,113.4
2017-11-23T20:50:55.329Z,103.0
2017-11-23T21:00:55.475Z,113.3
2017-11-23T21:10:55.678Z,122.4
2017-11-23T21:20:56.097Z,118.8
2017-11-23T21:30:55.710Z,121.0
2017-11-23T21:40:56.055Z,122.2
2017-11-23T21:50:55.970Z,115.2
2017-11-23T22:00:55.600Z,115.5
2017-11-23T22:10:56.249Z,112.7
2017-11-23T22:20:55.266Z,111.0
2017-11-23T22:30:55.670Z,104.1
2017-11-23T22:40:55.659Z,96.8
2017-11-23T22:50:56.276Z,100.2
2017-11-23T23:00:55.718Z,102.4
2017-11-23T23:11:20.153Z,101.0
2017-11-23T23:23:02.539Z,98.2
2017-11-23T23:30:55.399Z,86.5
2017-11-23T23:40:55.322Z,95.2
2017-11-23T23:50:55.324Z,100.0
